Time;durP1;ratioP1;P1;durP2;ratioP2;P2;SDS_P1;SDS_P2;PMS_P1;PMS_P2;Temp;Humidity;BMP_temperature;BMP_pressure;BME280_temperature;BME280_humidity;BME280_pressure;Samples;Min_cycle;Max_cycle;Signal;HPM_P1;HPM_P2
2022/05/01 00:02:05;;;;;;;492.27;340.37;;;;;;;8.13;100.00;98904.16;5041762;28;20029;-62
2022/05/01 00:04:31;;;;;;;395.93;310.40;;;;;;;8.09;100.00;98895.69;5036064;28;20395;-61
2022/05/01 00:06:56;;;;;;;491.73;339.40;;;;;;;8.07;100.00;98886.31;5037707;28;20029;-62
2022/05/01 00:09:21;;;;;;;484.63;334.10;;;;;;;8.15;100.00;98893.06;5043851;28;20534;-60
2022/05/01 00:11:47;;;;;;;472.80;341.87;;;;;;;8.12;100.00;98898.19;5046443;28;20436;-61
2022/05/01 00:14:12;;;;;;;459.40;339.63;;;;;;;8.17;100.00;98886.25;5042520;28;20025;-61
2022/05/01 00:16:38;;;;;;;471.33;328.37;;;;;;;8.34;100.00;98882.78;5042242;28;20037;-61
2022/05/01 00:19:03;;;;;;;471.30;324.00;;;;;;;8.56;100.00;98886.91;5047065;28;20423;-61
2022/05/01 00:21:29;;;;;;;468.10;325.23;;;;;;;8.71;100.00;98884.22;5041805;28;20467;-61
2022/05/01 00:23:54;;;;;;;480.47;322.73;;;;;;;8.78;100.00;98890.16;5041464;28;20036;-60
2022/05/01 00:26:20;;;;;;;479.17;341.77;;;;;;;8.96;100.00;98882.31;5043892;28;20029;-61
2022/05/01 00:28:45;;;;;;;488.00;332.57;;;;;;;8.94;100.00;98877.25;5047553;28;20037;-59
2022/05/01 00:31:11;;;;;;;452.23;334.50;;;;;;;8.98;100.00;98883.19;5044983;28;20033;-61
2022/05/01 00:36:27;;;;;;;468.48;333.00;;;;;;;9.07;100.00;98889.06;5043949;28;20489;-59
2022/05/01 00:39:02;;;;;;;456.20;325.17;;;;;;;9.03;100.00;98887.41;5046153;28;20029;-61
2022/05/01 00:41:28;;;;;;;469.43;337.60;;;;;;;9.00;100.00;98886.56;5043753;28;20024;-61
2022/05/01 00:44:04;;;;;;;455.33;333.37;;;;;;;9.00;100.00;98887.41;5040639;28;20483;-61
2022/05/01 00:46:31;;;;;;;446.23;335.70;;;;;;;9.17;100.00;98888.09;5045296;28;20147;-62
2022/05/01 00:48:59;;;;;;;443.03;334.47;;;;;;;9.27;100.00;98886.31;5045738;28;20128;-61
2022/05/01 00:51:25;;;;;;;450.77;339.77;;;;;;;9.28;100.00;98892.28;5043245;28;20082;-62
2022/05/01 00:53:52;;;;;;;470.30;350.77;;;;;;;9.32;100.00;98887.13;5040850;28;20566;-61
2022/05/01 00:56:18;;;;;;;453.03;348.33;;;;;;;9.34;100.00;98882.81;5045722;28;20032;-61
2022/05/01 00:58:45;;;;;;;463.40;349.47;;;;;;;9.29;100.00;98886.31;5045641;28;20171;-60
2022/05/01 01:01:12;;;;;;;486.70;352.83;;;;;;;9.23;100.00;98879.53;5041671;28;20040;-61
2022/05/01 01:03:37;;;;;;;481.37;358.60;;;;;;;9.17;100.00;98880.44;5041609;28;20097;-60
2022/05/01 01:06:03;;;;;;;488.27;356.70;;;;;;;9.08;100.00;98879.69;5044901;28;20037;-60
2022/05/01 01:08:28;;;;;;;501.20;370.33;;;;;;;9.05;100.00;98875.44;5045817;28;20039;-61
2022/05/01 01:10:54;;;;;;;477.00;357.40;;;;;;;9.05;100.00;98882.25;5041700;28;20430;-61
2022/05/01 01:13:29;;;;;;;479.93;362.20;;;;;;;9.22;100.00;98884.66;5043279;28;20092;-61
2022/05/01 01:15:55;;;;;;;;;;;;;;;9.20;100.00;98886.38;5045425;28;20495;-61
2022/05/01 01:18:24;;;;;;;467.60;336.50;;;;;;;9.15;100.00;98874.50;5044573;28;19925;-61
2022/05/01 01:20:53;;;;;;;475.27;342.30;;;;;;;9.09;100.00;98881.34;5041283;28;20033;-61
2022/05/01 01:23:19;;;;;;;474.17;341.87;;;;;;;9.07;100.00;98880.53;5043425;28;20025;-60
2022/05/01 01:25:47;;;;;;;475.53;362.63;;;;;;;8.99;100.00;98882.31;5044618;28;20130;-61
2022/05/01 01:28:14;;;;;;;463.23;367.97;;;;;;;8.89;100.00;98876.44;5043272;28;20111;-58
2022/05/01 01:33:28;;;;;;;450.53;357.53;;;;;;;8.83;100.00;98879.03;5044510;28;20055;-61
2022/05/01 01:35:54;;;;;;;;;;;;;;;8.90;100.00;98888.38;5045431;28;20037;-61
2022/05/01 01:38:20;;;;;;;;;;;;;;;8.99;100.00;98892.56;5042886;28;19912;-61
2022/05/01 01:40:52;;;;;;;;;;;;;;;9.02;100.00;98887.41;5041395;28;19952;-61
2022/05/01 01:43:28;;;;;;;;;;;;;;;8.94;100.00;98884.91;5045123;28;19917;-61
2022/05/01 01:45:54;;;;;;;;;;;;;;;8.91;100.00;98881.53;5045708;28;19920;-59
2022/05/01 01:48:20;;;;;;;;;;;;;;;8.86;100.00;98884.13;5040922;28;20018;-61
2022/05/01 01:50:57;;;;;;;;;;;;;;;8.85;100.00;98886.69;5042095;28;20208;-59
2022/05/01 01:53:22;;;;;;;;;;;;;;;8.87;100.00;98888.38;5045632;28;20015;-61
2022/05/01 01:55:47;;;;;;;;;;;;;;;8.86;100.00;98884.13;5044728;28;19927;-61
2022/05/01 01:58:13;;;;;;;;;;;;;;;8.83;100.00;98878.16;5040883;28;20370;-61
2022/05/01 02:00:38;;;;;;;;;;;;;;;8.82;100.00;98869.69;5042802;28;19917;-61
2022/05/01 02:03:04;;;;;;;;;;;;;;;8.81;100.00;98877.34;5044631;28;20047;-61
2022/05/01 02:05:30;;;;;;;;;;;;;;;8.79;100.00;98881.63;5044015;28;19988;-61
2022/05/01 02:07:55;;;;;;;;;;;;;;;8.75;100.00;98882.50;5040354;28;20392;-60
2022/05/01 02:10:21;;;;;;;;;;;;;;;8.67;100.00;98875.75;5042680;28;19921;-61
2022/05/01 02:12:46;;;;;;;;;;;;;;;8.61;100.00;98880.88;5045108;28;19917;-61
2022/05/01 02:15:11;;;;;;;;;;;;;;;8.53;100.00;98884.38;5042387;28;19962;-59
2022/05/01 02:17:39;;;;;;;;;;;;;;;8.44;100.00;98885.28;5040456;28;20342;-61
2022/05/01 02:20:04;;;;;;;;;;;;;;;8.40;100.00;98885.31;5026292;28;19919;-61
2022/05/01 02:22:30;;;;;;;;;;;;;;;8.31;100.00;98885.38;5044379;28;19924;-61
2022/05/01 02:24:55;;;;;;;;;;;;;;;8.25;100.00;98896.44;5041869;28;19917;-61
2022/05/01 02:27:20;;;;;;;;;;;;;;;8.19;100.00;98887.09;5040133;28;19974;-60
2022/05/01 02:29:46;;;;;;;;;;;;;;;8.17;100.00;98888.81;5043604;28;20232;-61
2022/05/01 02:32:11;;;;;;;;;;;;;;;8.07;100.00;98882.06;5044305;28;20071;-61
2022/05/01 02:34:36;;;;;;;;;;;;;;;8.04;100.00;98897.41;5040930;28;20253;-60
2022/05/01 02:37:02;;;;;;;;;;;;;;;7.98;100.00;98894.00;5040416;28;20016;-60
2022/05/01 02:39:27;;;;;;;;;;;;;;;7.94;100.00;98898.28;5043283;28;20453;-61
2022/05/01 02:41:52;;;;;;;;;;;;;;;7.86;100.00;98894.06;5043784;28;19955;-62
2022/05/01 02:44:18;;;;;;;;;;;;;;;7.85;100.00;98897.50;5040466;28;19932;-60
2022/05/01 02:46:43;;;;;;;;;;;;;;;7.81;100.00;98896.63;5041327;28;19917;-60
2022/05/01 02:49:10;;;;;;;;;;;;;;;7.78;100.00;98896.66;5045036;28;19936;-61
2022/05/01 02:51:36;;;;;;;;;;;;;;;7.72;100.00;98897.50;5029476;28;20287;-61
2022/05/01 02:54:04;;;;;;;;;;;;;;;7.70;100.00;98894.13;5039736;28;19917;-62
2022/05/01 02:56:30;;;;;;;;;;;;;;;7.64;100.00;98896.69;5040317;28;19927;-62
2022/05/01 02:58:55;;;;;;;;;;;;;;;7.60;100.00;98901.81;5043320;28;20375;-61
2022/05/01 03:01:21;;;;;;;;;;;;;;;7.58;100.00;98896.72;5043057;28;20003;-61
2022/05/01 03:03:46;;;;;;;;;;;;;;;7.55;100.00;98908.66;5039556;28;19917;-61
2022/05/01 03:06:11;;;;;;;;;;;;;;;7.53;100.00;98905.22;5041357;28;20542;-61
2022/05/01 03:08:36;;;;;;;;;;;;;;;7.47;100.00;98903.53;5043287;28;20252;-61
2022/05/01 03:11:02;;;;;;;;;;;;;;;7.49;100.00;98906.09;5042392;28;19916;-61
2022/05/01 03:13:27;;;;;;;;;;;;;;;7.42;100.00;98900.19;5039301;28;19917;-62
2022/05/01 03:15:53;;;;;;;;;;;;;;;7.37;100.00;98903.56;5041348;28;19999;-61
2022/05/01 03:23:47;;;;;;;;;;;;;;;7.33;100.00;98906.13;5038212;28;19924;-62
2022/05/01 03:26:12;;;;;;;;;;;;;;;7.37;100.00;98908.69;5043171;28;19916;-60
2022/05/01 03:28:37;;;;;;;;;;;;;;;7.39;100.00;98912.06;5042933;28;19920;-61
2022/05/01 03:31:08;;;;;;;;;;;;;;;7.42;100.00;98917.19;5040945;28;20027;-61
2022/05/01 03:33:34;;;;;;;;;;;;;;;7.46;100.00;98918.88;5039641;28;19917;-62
2022/05/01 03:36:00;;;;;;;;;;;;;;;7.58;100.00;98914.59;5043926;28;19920;-62
2022/05/01 03:38:25;;;;;;;;;;;;;;;7.66;100.00;98915.41;5043148;28;19924;-60
2022/05/01 03:40:50;;;;;;;;;;;;;;;7.82;100.00;98911.09;5038824;28;19950;-62
2022/05/01 03:43:18;;;;;;;;;;;;;;;7.84;100.00;98919.59;5038132;28;20331;-62
2022/05/01 03:45:44;;;;;;;;;;;;;;;7.81;100.00;98924.69;5043404;28;19920;-61
2022/05/01 03:48:09;;;;;;;;;;;;;;;7.79;100.00;98926.44;5042926;28;19947;-62
2022/05/01 03:50:35;;;;;;;;;;;;;;;7.80;100.00;98926.44;5038828;28;19917;-59
2022/05/01 03:53:04;;;;;;;;;;;;;;;7.82;100.00;98924.72;5040798;28;20432;-62
2022/05/01 03:55:30;;;;;;;;;;;;;;;7.92;100.00;98924.69;5042827;28;20389;-59
2022/05/01 03:57:55;;;;;;;;;;;;;;;7.93;100.00;98927.25;5041823;28;20044;-61
2022/05/01 04:00:21;;;;;;;;;;;;;;;7.98;100.00;98935.69;5039406;28;20023;-61
2022/05/01 04:02:46;;;;;;;;;;;;;;;8.01;100.00;98933.16;5040917;28;20305;-61
2022/05/01 04:05:12;;;;;;;;;;;;;;;8.03;100.00;98934.00;5042022;28;19923;-61
2022/05/01 04:07:38;;;;;;;;;;;;;;;8.09;100.00;98928.88;5041364;28;20478;-61
2022/05/01 04:10:03;;;;;;;;;;;;;;;8.17;100.00;98933.94;5039294;28;19923;-62
2022/05/01 04:12:28;;;;;;;;;;;;;;;8.30;100.00;98935.59;5041410;28;19934;-61
2022/05/01 04:14:56;;;;;;;;;;;;;;;8.62;100.00;98925.19;5042670;28;20207;-59
2022/05/01 04:17:22;;;;;;;;;;;;;;;8.77;100.00;98932.78;5040222;28;19968;-61
2022/05/01 04:19:48;;;;;;;;;;;;;;;8.87;100.00;98936.13;5039025;28;20082;-62
2022/05/01 04:22:13;;;;;;;;;;;;;;;8.87;100.00;98929.28;5024931;28;19923;-62
2022/05/01 04:24:38;;;;;;;;;;;;;;;8.90;100.00;98934.38;5042817;28;20298;-61
2022/05/01 04:27:06;;;;;;;;;;;;;;;8.94;100.00;98936.06;5039668;28;19924;-62
2022/05/01 04:29:38;;;;;;;;;;;;;;;9.00;100.00;98933.44;5038540;28;19924;-61
2022/05/01 04:32:05;;;;;;;;;;;;;;;9.09;100.00;98943.59;5042862;28;19916;-59
2022/05/01 04:34:30;;;;;;;;;;;;;;;9.15;100.00;98943.56;5043513;28;19999;-60
2022/05/01 04:36:57;;;;;;;;;;;;;;;9.25;100.00;98946.03;5038894;28;19916;-60
2022/05/01 04:39:23;;;;;;;;;;;;;;;9.31;100.00;98946.81;5038759;28;20028;-60
2022/05/01 04:41:48;;;;;;;;;;;;;;;9.39;100.00;98941.63;5043001;28;19917;-61
2022/05/01 04:44:13;;;;;;;;;;;;;;;9.47;100.00;98950.06;5042450;28;19939;-60
2022/05/01 04:46:38;;;;;;;;;;;;;;;9.59;100.00;98944.84;5037876;28;19920;-61
2022/05/01 04:49:04;;;;;;;;;;;;;;;9.78;100.00;98942.94;5038792;28;19928;-61
2022/05/01 04:51:30;;;;;;;;;;;;;;;9.97;100.00;98947.00;5043056;28;20331;-62
2022/05/01 04:53:55;;;;;;;;;;;;;;;9.95;100.00;98952.13;5043812;28;19913;-61
2022/05/01 04:59:07;;;;;;;;;;;;;;;9.94;100.00;98945.31;5043692;28;20079;-62
2022/05/01 05:01:33;;;;;;;;;;;;;;;9.96;100.00;98951.28;5046339;28;20007;-62
2022/05/01 05:03:59;;;;;;;;;;;;;;;10.01;100.00;98954.63;5044893;28;20404;-62
2022/05/01 05:06:24;;;;;;;;;;;;;;;10.04;100.00;98953.75;5041989;28;19939;-61
2022/05/01 05:11:33;;;;;;;;;;;;;;;10.22;100.00;98952.72;5045893;28;20282;-60
2022/05/01 05:13:58;;;;;;;;;;;;;;;10.34;100.00;98950.00;5043424;28;19920;-60
2022/05/01 05:16:23;;;;;;;;;;;;;;;10.45;100.00;98956.66;5039392;28;19920;-62
2022/05/01 05:18:49;;;;;;;;;;;;;;;10.59;100.00;98963.31;5045914;28;20000;-61
2022/05/01 05:21:14;;;;;;;;;;;;;;;10.66;100.00;98959.78;5046218;28;19916;-60
2022/05/01 05:23:39;;;;;;;;;;;;;;;10.73;100.00;98962.28;5042891;28;19986;-59
2022/05/01 05:26:04;;;;;;;;;;;;;;;10.79;100.00;98963.88;5041588;28;19917;-60
2022/05/01 05:28:30;;;;;;;;;;;;;;;10.91;100.00;98968.84;5046039;28;19916;-62
2022/05/01 05:30:55;;;;;;;;;;;;;;;11.07;100.00;98969.47;5045830;28;19999;-60
2022/05/01 05:33:20;;;;;;;;;;;;;;;11.16;100.00;98970.16;5043362;28;20641;-61
2022/05/01 05:35:46;;;;;;;;;;;;;;;11.27;100.00;98968.28;5024040;28;20043;-61
2022/05/01 05:38:11;;;;;;;;;;;;;;;11.40;100.00;98968.91;5045592;28;19940;-60
2022/05/01 05:40:38;;;;;;;;;;;;;;;11.51;100.00;98976.41;5046140;28;20409;-61
2022/05/01 05:43:04;;;;;;;;;;;;;;;11.43;100.00;98974.84;5041659;28;20020;-61
2022/05/01 05:45:29;;;;;;;;;;;;;;;11.44;100.00;98968.84;5042137;28;20377;-62
2022/05/01 05:47:54;;;;;;;;;;;;;;;11.53;100.00;98972.13;5045669;28;19920;-61
2022/05/01 05:50:19;;;;;;;;;;;;;;;11.59;100.00;98972.84;5046530;28;19916;-61
2022/05/01 05:52:45;;;;;;;;;;;;;;;11.71;100.00;98966.66;5040855;28;19944;-60
2022/05/01 05:55:10;;;;;;;;;;;;;;;11.78;100.00;98974.25;5043126;28;19923;-61
2022/05/01 05:57:35;;;;;;;;;;;;;;;11.87;100.00;98974.09;5046483;28;19923;-60
2022/05/01 06:00:01;;;;;;;;;;;;;;;12.00;100.00;98981.56;5044503;28;20012;-61
2022/05/01 06:02:27;;;;;;;;;;;;;;;12.08;100.00;98982.25;5041634;28;19944;-60
2022/05/01 06:04:52;;;;;;;;;;;;;;;12.15;100.00;98983.81;5041896;28;19955;-61
2022/05/01 06:07:17;;;;;;;;;;;;;;;12.09;100.00;98983.97;5044851;28;20099;-61
2022/05/01 06:09:42;;;;;;;;;;;;;;;12.23;100.00;98980.22;5043094;28;19987;-61
2022/05/01 06:12:09;;;;;;;;;;;;;;;12.30;100.00;98979.25;5040319;28;19971;-61
2022/05/01 06:14:34;;;;;;;;;;;;;;;12.46;100.00;98981.50;5043089;28;20390;-61
2022/05/01 06:17:00;;;;;;;;;;;;;;;12.58;100.00;98983.81;5045729;28;19920;-61
2022/05/01 06:19:25;;;;;;;;;;;;;;;12.71;100.00;98980.94;5042643;28;19943;-60
2022/05/01 06:21:50;;;;;;;;;;;;;;;12.70;100.00;98979.22;5041209;28;20301;-60
2022/05/01 06:24:16;;;;;;;;;;;;;;;12.85;100.00;98975.50;5042866;28;19916;-60
2022/05/01 06:26:41;;;;;;;;;;;;;;;12.88;100.00;98969.41;5045359;28;19947;-60
2022/05/01 06:29:06;;;;;;;;;;;;;;;13.02;100.00;98967.38;5042397;28;19916;-61
2022/05/01 06:31:32;;;;;;;;;;;;;;;13.15;100.00;98974.78;5041624;28;19963;-61
2022/05/01 06:33:57;;;;;;;;;;;;;;;13.28;100.00;98983.91;5043476;28;19923;-61
2022/05/01 06:36:23;;;;;;;;;;;;;;;13.36;100.00;98988.91;5045146;28;20311;-62
2022/05/01 06:38:48;;;;;;;;;;;;;;;13.54;100.00;98988.41;5040907;28;20380;-61
2022/05/01 06:41:14;;;;;;;;;;;;;;;13.61;100.00;98997.72;5040361;28;19917;-61
2022/05/01 06:43:39;;;;;;;;;;;;;;;13.64;100.00;99000.19;5043812;28;19913;-61
2022/05/01 06:46:05;;;;;;;;;;;;;;;13.52;100.00;99008.25;5044236;28;19932;-61
2022/05/01 06:48:30;;;;;;;;;;;;;;;13.58;100.00;98999.50;5041002;28;19925;-61
2022/05/01 06:50:55;;;;;;;;;;;;;;;13.52;100.00;99003.09;5039782;28;20016;-61
2022/05/01 06:53:21;;;;;;;;;;;;;;;13.48;100.00;98995.47;5044471;28;19960;-61
2022/05/01 06:55:46;;;;;;;;;;;;;;;13.45;100.00;99005.84;5044974;28;19917;-60
2022/05/01 06:58:12;;;;;;;;;;;;;;;13.34;100.00;99007.81;5039685;28;19916;-60
2022/05/01 07:00:37;;;;;;;;;;;;;;;13.38;100.00;99014.59;5041280;28;19939;-61
2022/05/01 07:03:02;;;;;;;;;;;;;;;13.20;100.00;99019.28;5043924;28;19917;-62
2022/05/01 07:05:28;;;;;;;;;;;;;;;13.13;100.00;99016.91;5043904;28;20039;-61
2022/05/01 07:07:54;;;;;;;;;;;;;;;13.02;100.00;99013.72;5039665;28;20366;-61
2022/05/01 07:10:20;;;;;;;;;;;;;;;12.99;100.00;99014.59;5041912;28;19943;-60
2022/05/01 07:12:46;;;;;;;;;;;;;;;12.86;100.00;99017.50;5043097;28;20114;-61
2022/05/01 07:15:11;;;;;;;;;;;;;;;12.90;100.00;99014.00;5045133;28;19920;-60
2022/05/01 07:17:37;;;;;;;;;;;;;;;12.89;100.00;99014.88;5040771;28;20447;-61
2022/05/01 07:20:02;;;;;;;;;;;;;;;12.88;100.00;99020.88;5042231;28;19935;-62
2022/05/01 07:22:28;;;;;;;;;;;;;;;12.83;100.00;99019.25;5044239;28;19916;-62
2022/05/01 07:24:53;;;;;;;;;;;;;;;12.89;100.00;99020.00;5043634;28;20357;-59
2022/05/01 07:27:18;;;;;;;;;;;;;;;12.98;100.00;99028.38;5040999;28;20294;-59
2022/05/01 07:29:44;;;;;;;;;;;;;;;13.01;100.00;99032.59;5042324;28;19990;-60
2022/05/01 07:32:09;;;;;;;;;;;;;;;13.01;100.00;99030.88;5044376;28;19964;-61
2022/05/01 07:34:35;;;;;;;;;;;;;;;13.07;100.00;99040.19;5041941;28;19917;-60
2022/05/01 07:37:00;;;;;;;;;;;;;;;13.20;100.00;99054.50;5039662;28;19917;-59
2022/05/01 07:39:25;;;;;;;;;;;;;;;13.28;100.00;99053.44;5042370;28;19916;-61
2022/05/01 07:41:51;;;;;;;;;;;;;;;13.40;100.00;99056.63;5017542;28;20782;-60
2022/05/01 07:44:16;;;;;;;;;;;;;;;13.49;100.00;99059.84;5040279;28;19917;-60
2022/05/01 07:46:42;;;;;;;;;;;;;;;13.46;100.00;99059.03;5039818;28;19920;-60
2022/05/01 07:49:10;;;;;;;;;;;;;;;13.43;100.00;99057.41;5042982;28;20088;-60
2022/05/01 07:51:35;;;;;;;;;;;;;;;13.40;100.00;99057.47;5043965;28;19917;-60
2022/05/01 07:54:01;;;;;;;;;;;;;;;13.40;100.00;99059.19;5040390;28;20354;-60
2022/05/01 07:56:27;;;;;;;;;;;;;;;13.49;100.00;99054.69;5039593;28;20401;-60
2022/05/01 07:58:52;;;;;;;;;;;;;;;13.44;100.00;99047.94;5043317;28;20039;-60
2022/05/01 08:01:17;;;;;;;;;;;;;;;13.23;100.00;99050.16;5044383;28;20016;-60
2022/05/01 08:06:27;;;;;;;;;;;;;;;13.11;100.00;99047.81;5040760;28;20054;-61
2022/05/01 08:08:52;;;;;;;;;;;;;;;13.12;100.00;99039.22;5043312;28;20035;-60
2022/05/01 08:11:17;;;;;;;;;;;;;;;13.18;100.00;99039.09;5042403;28;20330;-60
2022/05/01 08:13:42;;;;;;;;;;;;;;;13.25;100.00;99040.63;5039289;28;19917;-61
2022/05/01 08:16:08;;;;;;;;;;;;;;;13.38;100.00;99036.03;5041126;28;20019;-60
2022/05/01 08:21:18;;;;;;;;;;;;;;;13.11;100.00;99029.81;5041624;28;19939;-60
2022/05/01 08:23:43;;;;;;;;;;;;;;;12.89;100.00;99025.16;5038903;28;20442;-61
2022/05/01 08:26:10;;;;;;;;;;;;;;;13.02;100.00;99016.28;5027734;28;19940;-61
2022/05/01 08:28:39;;;;;;;;;;;;;;;12.80;100.00;99016.75;5044253;28;19920;-61
2022/05/01 08:31:05;;;;;;;;;;;;;;;12.79;100.00;99004.75;5045999;28;20031;-61
2022/05/01 08:33:31;;;;;;;;;;;;;;;12.60;100.00;98994.91;5044109;28;19916;-61
2022/05/01 08:35:56;;;;;;;;;;;;;;;12.57;100.00;98992.38;5046196;28;20378;-61
2022/05/01 08:38:22;;;;;;;;;;;;;;;12.59;100.00;98995.78;5047023;28;19987;-61
2022/05/01 08:40:48;;;;;;;;;;;;;;;12.75;100.00;99013.44;5043653;28;19917;-60
2022/05/01 08:43:17;;;;;;;;;;;;;;;12.93;100.00;99022.47;5042776;28;20121;-61
2022/05/01 08:46:01;;;;;;;;;;;;;;;13.16;100.00;99025.41;5044678;28;19921;-61
2022/05/01 08:48:39;;;;;;;;;;;;;;;13.42;100.00;99032.50;5046761;28;19920;-61
2022/05/01 08:51:05;;;;;;;;;;;;;;;13.53;100.00;99032.28;5043046;28;20015;-61
2022/05/01 08:53:31;;;;;;;;;;;;;;;13.75;100.00;99038.56;5044692;28;19916;-61
2022/05/01 08:55:57;;;;;;;;;;;;;;;13.83;100.00;99028.09;5046873;28;19923;-61
2022/05/01 08:58:23;;;;;;;;;;;;;;;13.79;100.00;99032.44;5044956;28;19963;-60
2022/05/01 09:00:52;;;;;;;;;;;;;;;13.98;100.00;99027.66;5043003;28;20357;-60
2022/05/01 09:03:17;;;;;;;;;;;;;;;13.83;100.00;99028.94;5044686;28;19924;-60
2022/05/01 09:05:43;;;;;;;;;;;;;;;13.49;100.00;99036.66;5046708;28;20094;-60
2022/05/01 09:08:08;;;;;;;;;;;;;;;13.41;100.00;99033.38;5045216;28;19927;-60
2022/05/01 09:10:33;;;;;;;;;;;;;;;13.40;100.00;99036.88;5042858;28;20375;-61
2022/05/01 09:12:59;;;;;;;;;;;;;;;13.49;100.00;99036.66;5044652;28;19913;-60
2022/05/01 09:15:35;;;;;;;;;;;;;;;13.58;100.00;99038.97;5046192;28;20340;-61
2022/05/01 09:18:04;;;;;;;;;;;;;;;13.61;100.00;99031.19;5043135;28;19966;-61
2022/05/01 09:20:30;;;;;;;;;;;;;;;13.61;100.00;99028.63;5041969;28;20209;-60
2022/05/01 09:22:57;;;;;;;;;;;;;;;13.57;100.00;99027.00;5044091;28;20369;-60
2022/05/01 09:25:23;;;;;;;;;;;;;;;13.50;100.00;99017.72;5029058;28;20606;-60
2022/05/01 09:27:49;;;;;;;;;;;;;;;13.52;100.00;99015.97;5042698;28;20809;-61
2022/05/01 09:30:20;;;;;;;;;;;;;;;13.33;100.00;99012.13;5042642;28;20524;-60
2022/05/01 09:32:45;;;;;;;;;;;;;;;12.97;100.00;98997.53;5045153;28;20340;-60
2022/05/01 09:35:31;;;;;;;;;;;;;;;12.95;100.00;99000.13;5045743;28;19962;-60
2022/05/01 09:38:16;;;;;;;;;;;;;;;13.10;100.00;99015.25;5040861;28;19923;-59
2022/05/01 09:40:42;;;;;;;;;;;;;;;13.19;100.00;99027.94;5042957;28;19986;-60
2022/05/01 09:43:07;;;;;;;;;;;;;;;13.11;100.00;99028.97;5042720;28;20306;-60
2022/05/01 09:45:33;;;;;;;;;;;;;;;12.97;100.00;99029.25;5042482;28;19921;-60
2022/05/01 09:47:58;;;;;;;;;;;;;;;12.88;100.00;99031.16;5042071;28;20758;-60
2022/05/01 09:50:40;;;;;;;;;;;;;;;12.55;100.00;99033.59;5044345;28;19916;-59
2022/05/01 09:53:06;;;;;;;;;;;;;;;12.29;100.00;99036.69;5045368;28;19966;-60
2022/05/01 09:55:31;;;;;;;;;;;;;;;12.07;100.00;99039.66;5043275;28;19916;-60
2022/05/01 09:58:04;;;;;;;;;;;;;;;12.01;100.00;99047.50;5040897;28;19923;-61
2022/05/01 10:00:35;;;;;;;;;;;;;;;11.97;100.00;99049.25;5044754;28;20074;-60
2022/05/01 10:03:18;;;;;;;;;;;;;;;11.96;100.00;99049.31;5045699;28;20100;-60
2022/05/01 10:05:44;;;;;;;;;;;;;;;11.89;100.00;99048.56;5041821;28;20502;-59
2022/05/01 10:08:10;;;;;;;;;;;;;;;11.82;100.00;99044.41;5041269;28;20043;-61
2022/05/01 10:10:36;;;;;;;;;;;;;;;11.92;100.00;99038.25;5044623;28;20043;-60
2022/05/01 10:13:02;;;;;;;;;;;;;;;12.05;100.00;99019.13;5046055;28;19950;-60
2022/05/01 10:15:27;;;;;;;;;;;;;;;12.02;100.00;99019.19;5040513;28;20325;-61
2022/05/01 10:17:52;;;;;;;;;;;;;;;11.90;100.00;99010.00;5041689;28;19921;-60
2022/05/01 10:20:20;;;;;;;;;;;;;;;11.86;100.00;99023.78;5045343;28;20365;-60
2022/05/01 10:22:46;;;;;;;;;;;;;;;11.82;100.00;99019.56;5044897;28;19924;-60
2022/05/01 10:25:16;;;;;;;;;;;;;;;11.98;100.00;99024.41;5041145;28;20462;-59
2022/05/01 10:27:46;;;;;;;;;;;;;;;12.01;100.00;99022.63;5041970;28;19916;-60
2022/05/01 10:33:22;;;;;;;;;;;;;;;12.22;100.00;99013.69;4960249;28;20388;-60
2022/05/01 10:36:10;;;;;;;;;;;;;;;12.32;100.00;98994.63;4956939;28;20307;-60
2022/05/01 10:38:38;;;;;;;;;;;;;;;12.28;100.00;98985.28;4959903;28;20608;-59
2022/05/01 10:41:04;;;;;;;;;;;;;;;12.09;100.00;98981.41;4962029;28;20084;-61
2022/05/01 10:43:36;;;;;;;;;;;;;;;12.05;100.00;98982.34;4957894;28;20571;-61
2022/05/01 10:46:22;;;;;;;;;;;;;;;12.27;100.00;98983.59;4957553;28;20042;-62
2022/05/01 10:48:48;;;;;;;;;;;;;;;12.31;100.00;98990.34;4933491;28;19922;-61
2022/05/01 10:51:34;;;;;;;;;;;;;;;12.47;100.00;98988.34;4960608;28;19918;-61
2022/05/01 10:54:17;;;;;;;;;;;;;;;12.65;100.00;98983.63;4957789;28;19922;-61
2022/05/01 10:56:42;;;;;;;;;;;;;;;12.74;100.00;98992.88;4945038;28;20592;-61
2022/05/01 10:59:26;;;;;;;;;;;;;;;13.02;100.00;98993.13;4961089;28;20013;-60
2022/05/01 11:01:52;;;;;;;;;;;;;;;13.29;100.00;98987.34;4957787;28;19918;-61
2022/05/01 11:04:19;;;;;;;;;;;;;;;13.36;100.00;98986.31;5002349;28;20415;-61
2022/05/01 11:06:45;;;;;;;;;;;;;;;13.63;100.00;98985.63;5044732;28;19916;-60
2022/05/01 11:09:14;;;;;;;;;;;;;;;13.80;100.00;98981.75;5044489;28;20286;-60
2022/05/01 11:11:39;;;;;;;;;;;;;;;13.87;100.00;98989.31;5040025;28;20358;-61
2022/05/01 11:14:05;;;;;;;;;;;;;;;14.18;100.00;98982.41;5040040;28;19917;-60
2022/05/01 11:16:50;;;;;;;;;;;;;;;14.57;100.00;98984.78;5043791;28;19921;-62
2022/05/01 11:19:15;;;;;;;;;;;;;;;14.85;100.00;98988.22;5043252;28;20274;-62
2022/05/01 11:21:40;;;;;;;;;;;;;;;15.01;100.00;98983.44;5040620;28;20373;-61
2022/05/01 11:24:06;;;;;;;;;;;;;;;15.15;100.00;98976.09;5041713;28;19923;-60
2022/05/01 11:26:32;;;;;;;;;;;;;;;15.18;100.00;98975.16;5044699;28;20347;-59
2022/05/01 11:29:13;;;;;;;;;;;;;;;15.31;100.00;98974.72;5044055;28;19946;-61
2022/05/01 11:31:38;;;;;;;;;;;;;;;14.83;100.00;98976.25;5040958;28;20372;-60
2022/05/01 11:34:16;;;;;;;;;;;;;;;14.80;100.00;98972.03;5043634;28;19917;-61
2022/05/01 11:36:51;;;;;;;;;;;;;;;14.94;100.00;98966.44;5044297;28;19917;-60
2022/05/01 11:39:16;;;;;;;;;;;;;;;14.85;100.00;98959.81;5042148;28;19982;-60
2022/05/01 11:41:42;;;;;;;;;;;;;;;14.69;100.00;98957.75;5040604;28;20303;-61
2022/05/01 11:44:23;;;;;;;;;;;;;;;14.57;100.00;98954.66;5044174;28;19920;-60
2022/05/01 11:46:49;;;;;;;;;;;;;;;14.41;100.00;98955.16;5044383;28;20315;-61
2022/05/01 11:49:14;;;;;;;;;;;;;;;14.38;100.00;98952.69;5038674;28;19928;-61
2022/05/01 11:51:40;;;;;;;;;;;;;;;14.29;100.00;98956.34;5040249;28;19917;-61
2022/05/01 11:54:07;;;;;;;;;;;;;;;14.46;100.00;98954.16;5044405;28;19924;-61
2022/05/01 12:04:45;;;;;;;;;;;;;;;14.90;100.00;98957.94;5048131;28;19924;-61
2022/05/01 12:07:15;;;;;;;;;;;;;;;15.03;100.00;98950.66;5045360;28;19928;-61
2022/05/01 12:09:41;;;;;;;;;;;;;;;15.29;100.00;98949.81;5043997;28;19924;-64
2022/05/01 12:12:09;;;;;;;;;;;;;;;15.43;100.00;98945.03;5045769;28;19920;-61
2022/05/01 12:14:35;;;;;;;;;;;;;;;15.62;100.00;98935.78;5046330;28;20375;-63
2022/05/01 12:17:00;;;;;;;;;;;;;;;15.62;100.00;98929.78;5043995;28;19966;-64
2022/05/01 12:19:36;;;;;;;;;;;;;;;15.82;100.00;98929.94;5041645;28;19925;-63
2022/05/01 12:22:02;;;;;;;;;;;;;;;15.96;100.00;98925.09;5046829;28;20371;-68
2022/05/01 12:24:28;;;;;;;;;;;;;;;16.04;100.00;98917.09;5029560;28;19966;-61
2022/05/01 12:26:54;;;;;;;;;;;;;;;16.22;100.00;98914.66;5045726;28;19992;-61
2022/05/01 12:29:20;;;;;;;;;;;;;;;16.31;100.00;98906.56;5044642;28;19917;-61
2022/05/01 12:31:59;;;;;;;;;;;;;;;16.23;100.00;98913.75;5049343;28;19931;-61
2022/05/01 12:34:24;;;;;;;;;;;;;;;16.53;100.00;98906.59;5047464;28;19982;-62
2022/05/01 12:36:56;;;;;;;;;;;;;;;16.58;100.00;98907.28;5042070;28;20023;-62
2022/05/01 12:39:22;;;;;;;;;;;;;;;16.72;100.00;98899.00;5045655;28;19917;-59
2022/05/01 12:45:07;;;;;;;;;;;;;;;16.87;100.00;98894.03;5028417;28;20260;-62
2022/05/01 12:47:37;;;;;;;;;;;;;;;16.88;100.00;98887.13;5024558;28;19927;-59
2022/05/01 12:50:03;;;;;;;;;;;;;;;16.86;100.00;98888.91;5046550;28;19924;-61
2022/05/01 12:52:30;;;;;;;;;;;;;;;16.65;100.00;98875.06;5045835;28;19921;-65
2022/05/01 12:55:18;;;;;;;;;;;;;;;16.97;100.00;98871.19;5042693;28;19912;-62
2022/05/01 12:57:46;;;;;;;;;;;;;;;17.30;100.00;98867.22;5044532;28;19952;-61
2022/05/01 13:00:12;;;;;;;;;;;;;;;17.26;100.00;98863.06;5046448;28;19912;-62
2022/05/01 13:02:37;;;;;;;;;;;;;;;17.46;100.00;98859.59;5045272;28;19923;-61
2022/05/01 13:05:03;;;;;;;;;;;;;;;17.41;100.00;98855.53;5042047;28;20342;-61